Time;durP1;ratioP1;P1;durP2;ratioP2;P2;SDS_P1;SDS_P2;PMS_P1;PMS_P2;Temp;Humidity;BMP_temperature;BMP_pressure;BME280_temperature;BME280_humidity;BME280_pressure;Samples;Min_cycle;Max_cycle;Signal;HPM_P1;HPM_P2
2023/03/28 00:00:40;;;;;;;5.30;2.88;;;1.00;90.20;;;;;;5033603;28;20226;-66
2023/03/28 00:03:07;;;;;;;3.78;2.90;;;0.90;90.40;;;;;;5032564;28;20263;-66
2023/03/28 00:05:36;;;;;;;2.72;2.20;;;0.90;90.10;;;;;;5033738;28;20201;-67
2023/03/28 00:08:03;;;;;;;2.72;2.03;;;0.90;90.10;;;;;;5032817;28;20222;-66
2023/03/28 00:10:29;;;;;;;4.20;2.10;;;0.90;89.40;;;;;;5033334;28;20631;-66
2023/03/28 00:12:58;;;;;;;3.63;2.60;;;0.90;89.70;;;;;;5032717;28;20206;-66
2023/03/28 00:15:25;;;;;;;3.83;2.65;;;1.00;88.70;;;;;;5032775;28;20205;-66
2023/03/28 00:17:52;;;;;;;4.20;2.05;;;1.00;88.80;;;;;;5032862;28;20230;-66
2023/03/28 00:20:19;;;;;;;4.05;2.72;;;1.00;88.00;;;;;;5032623;28;20202;-66
2023/03/28 00:22:46;;;;;;;4.97;2.33;;;1.00;88.30;;;;;;5032282;28;20213;-66
2023/03/28 00:25:13;;;;;;;4.88;2.58;;;1.00;88.20;;;;;;5032491;28;20210;-66
2023/03/28 00:27:40;;;;;;;4.15;2.30;;;0.90;88.40;;;;;;5032775;28;20230;-66
2023/03/28 00:30:09;;;;;;;3.10;2.42;;;0.90;88.80;;;;;;5032368;28;20202;-66
2023/03/28 00:32:36;;;;;;;6.13;2.78;;;0.90;88.40;;;;;;5032539;28;20232;-67
2023/03/28 00:35:03;;;;;;;2.70;2.35;;;0.90;89.20;;;;;;5032536;28;20617;-67
2023/03/28 00:37:30;;;;;;;2.97;1.90;;;0.90;88.30;;;;;;5032522;28;20205;-67
2023/03/28 00:39:58;;;;;;;3.90;2.03;;;0.90;88.00;;;;;;5032377;28;20215;-67
2023/03/28 00:42:26;;;;;;;2.58;2.38;;;0.80;88.60;;;;;;5032014;28;20232;-66
2023/03/28 00:44:54;;;;;;;3.55;2.33;;;0.90;88.40;;;;;;5031292;28;20202;-67
2023/03/28 00:47:39;;;;;;;5.03;2.30;;;0.80;88.30;;;;;;5031872;28;20290;-67
2023/03/28 00:50:11;;;;;;;2.58;2.35;;;0.80;88.80;;;;;;5032303;28;20222;-66
2023/03/28 00:52:42;;;;;;;3.83;1.92;;;0.90;88.50;;;;;;5031066;28;20204;-67
2023/03/28 00:55:15;;;;;;;4.72;3.15;;;0.90;88.40;;;;;;5032000;28;20201;-67
2023/03/28 00:57:43;;;;;;;2.63;2.30;;;0.80;88.30;;;;;;5031783;28;20233;-67
2023/03/28 01:00:12;;;;;;;4.18;1.90;;;0.90;87.50;;;;;;5032211;28;20198;-67
2023/03/28 01:02:46;;;;;;;6.07;2.58;;;1.00;86.80;;;;;;5031522;28;20218;-67
2023/03/28 01:05:13;;;;;;;2.63;2.20;;;1.00;87.20;;;;;;5032233;28;20586;-66
2023/03/28 01:07:45;;;;;;;4.93;2.20;;;1.00;86.50;;;;;;5031748;28;20226;-66
2023/03/28 01:10:13;;;;;;;5.70;2.00;;;1.00;86.90;;;;;;5031885;28;20206;-67
2023/03/28 01:12:42;;;;;;;2.78;2.33;;;0.90;87.10;;;;;;5031631;28;20209;-67
2023/03/28 01:15:10;;;;;;;4.63;3.50;;;0.80;87.40;;;;;;5031959;28;20206;-67
2023/03/28 01:17:37;;;;;;;4.95;2.15;;;0.80;87.50;;;;;;5031861;28;20229;-67
2023/03/28 01:20:21;;;;;;;3.35;2.20;;;0.80;87.20;;;;;;5031555;28;20297;-67
2023/03/28 01:23:31;;;;;;;4.35;2.40;;;0.80;87.40;;;;;;5031258;28;20198;-67
2023/03/28 01:26:32;;;;;;;3.15;1.98;;;0.90;86.40;;;;;;5031796;28;20208;-67
2023/03/28 01:29:37;;;;;;;3.47;2.63;;;0.90;86.40;;;;;;5031008;28;20229;-67
2023/03/28 01:32:40;;;;;;;6.32;2.78;;;0.90;86.40;;;;;;5010377;28;20565;-67
2023/03/28 01:35:35;;;;;;;3.80;2.40;;;0.90;86.90;;;;;;5011461;28;20221;-67
2023/03/28 01:38:11;;;;;;;3.88;2.60;;;0.80;86.60;;;;;;4984205;28;20267;-67
2023/03/28 01:40:48;;;;;;;7.35;2.83;;;0.70;87.00;;;;;;5011318;28;20680;-66
2023/03/28 01:43:25;;;;;;;2.58;1.80;;;0.70;87.20;;;;;;5011381;28;20198;-67
2023/03/28 01:45:59;;;;;;;2.42;1.85;;;0.50;87.60;;;;;;5011194;28;20209;-67
2023/03/28 01:48:35;;;;;;;4.43;2.38;;;0.50;88.20;;;;;;5011589;28;20230;-67
2023/03/28 01:51:11;;;;;;;4.85;4.38;;;0.60;88.00;;;;;;5017933;28;20288;-66
2023/03/28 01:53:44;;;;;;;5.43;3.08;;;0.60;87.90;;;;;;5031311;28;20201;-67
2023/03/28 01:56:20;;;;;;;4.60;2.90;;;0.70;87.90;;;;;;5031061;28;20216;-68
2023/03/28 01:58:54;;;;;;;7.90;2.35;;;0.70;87.80;;;;;;5030824;28;20643;-67
2023/03/28 02:01:25;;;;;;;4.28;2.58;;;0.80;87.80;;;;;;5030679;28;20704;-65
2023/03/28 02:03:56;;;;;;;6.28;2.45;;;0.80;87.50;;;;;;5030482;28;20206;-66
2023/03/28 02:06:24;;;;;;;3.38;2.30;;;0.80;87.30;;;;;;5030842;28;20201;-66
2023/03/28 02:08:54;;;;;;;6.45;3.30;;;0.80;87.60;;;;;;5030361;28;20226;-66
2023/03/28 02:11:21;;;;;;;6.60;2.83;;;0.80;87.40;;;;;;5030990;28;20201;-66
2023/03/28 02:13:53;;;;;;;5.25;3.13;;;0.80;87.50;;;;;;5030006;28;20293;-66
2023/03/28 02:16:22;;;;;;;5.80;2.92;;;0.80;88.00;;;;;;5030816;28;20212;-65
2023/03/28 02:18:53;;;;;;;5.20;3.47;;;0.80;87.90;;;;;;5030356;28;20225;-66
2023/03/28 02:21:25;;;;;;;3.92;3.15;;;0.80;87.90;;;;;;5030603;28;20229;-63
2023/03/28 02:23:54;;;;;;;5.72;3.15;;;0.80;87.80;;;;;;5030357;28;20749;-66
2023/03/28 02:26:23;;;;;;;3.25;2.70;;;0.80;88.40;;;;;;5030977;28;20201;-66
2023/03/28 02:28:54;;;;;;;5.25;3.25;;;0.80;88.20;;;;;;5031210;28;20226;-66
2023/03/28 02:31:22;;;;;;;4.70;4.22;;;0.80;88.40;;;;;;5030815;28;20289;-66
2023/03/28 02:33:51;;;;;;;5.95;3.50;;;0.70;88.30;;;;;;5030114;28;20296;-66
2023/03/28 02:36:30;;;;;;;5.32;3.22;;;0.80;88.50;;;;;;5030194;28;20198;-66
2023/03/28 02:39:09;;;;;;;12.40;3.50;;;0.80;88.30;;;;;;5030366;28;20233;-66
2023/03/28 02:41:51;;;;;;;4.22;3.00;;;0.80;88.10;;;;;;5029789;28;20225;-66
2023/03/28 02:44:32;;;;;;;4.57;3.65;;;0.80;87.90;;;;;;5030130;28;20208;-66
2023/03/28 02:47:10;;;;;;;5.90;3.42;;;0.80;88.40;;;;;;5029931;28;20206;-66
2023/03/28 02:49:48;;;;;;;5.30;3.17;;;0.70;88.30;;;;;;5030107;28;20221;-66
2023/03/28 02:52:24;;;;;;;6.55;4.07;;;0.60;88.50;;;;;;5029769;28;20276;-66
2023/03/28 02:55:02;;;;;;;4.90;3.45;;;0.60;88.70;;;;;;5030103;28;20201;-67
2023/03/28 02:57:33;;;;;;;4.50;3.08;;;0.50;88.80;;;;;;5029783;28;20209;-66
2023/03/28 03:00:11;;;;;;;7.63;4.95;;;0.60;89.00;;;;;;5030041;28;20209;-66
2023/03/28 03:02:39;;;;;;;6.30;3.72;;;0.60;88.50;;;;;;5029323;28;20832;-66
2023/03/28 03:05:08;;;;;;;4.45;3.60;;;0.70;88.50;;;;;;5029939;28;20850;-66
2023/03/28 03:07:35;;;;;;;4.57;4.18;;;0.70;88.60;;;;;;5029698;28;20292;-66
2023/03/28 03:10:04;;;;;;;4.95;3.00;;;0.70;88.50;;;;;;5029172;28;20596;-67
2023/03/28 03:12:30;;;;;;;4.35;3.85;;;0.60;88.40;;;;;;5029566;28;20688;-66
2023/03/28 03:14:59;;;;;;;4.72;3.20;;;0.60;88.50;;;;;;5029562;28;20598;-67
2023/03/28 03:17:27;;;;;;;8.70;5.05;;;0.60;88.70;;;;;;5029626;28;20206;-67
2023/03/28 03:19:54;;;;;;;5.03;4.30;;;0.50;89.00;;;;;;5029679;28;20213;-66
2023/03/28 03:22:21;;;;;;;4.65;3.45;;;0.50;89.00;;;;;;5029586;28;20222;-66
2023/03/28 03:24:49;;;;;;;4.30;3.90;;;0.50;89.00;;;;;;5029258;28;20693;-65
2023/03/28 03:27:18;;;;;;;4.07;3.38;;;0.40;89.30;;;;;;5029587;28;20209;-66
2023/03/28 03:29:45;;;;;;;4.22;3.88;;;0.50;89.40;;;;;;5029142;28;20826;-66
2023/03/28 03:32:12;;;;;;;5.43;3.47;;;0.40;89.10;;;;;;5029631;28;20973;-66
2023/03/28 03:34:40;;;;;;;8.10;3.47;;;0.30;89.40;;;;;;5029457;28;20208;-66
2023/03/28 03:37:08;;;;;;;4.50;3.80;;;0.10;90.00;;;;;;5029523;28;20202;-66
2023/03/28 03:39:35;;;;;;;5.65;4.20;;;0.00;90.10;;;;;;5029673;28;20218;-67
2023/03/28 03:42:02;;;;;;;7.65;3.72;;;-0.10;90.50;;;;;;5029086;28;20222;-67
2023/03/28 03:44:31;;;;;;;6.22;3.47;;;-0.20;90.40;;;;;;5029574;28;20639;-67
2023/03/28 03:46:57;;;;;;;5.38;3.80;;;-0.20;90.60;;;;;;5029915;28;20217;-66
2023/03/28 03:49:24;;;;;;;8.57;4.03;;;-0.40;90.80;;;;;;5029792;28;20218;-67
2023/03/28 03:51:51;;;;;;;5.70;3.92;;;-0.40;91.30;;;;;;5029498;28;20198;-67
2023/03/28 03:54:18;;;;;;;4.78;4.30;;;-0.30;91.40;;;;;;5029169;28;20212;-66
2023/03/28 03:56:45;;;;;;;5.10;4.18;;;-0.10;91.20;;;;;;5029185;28;20206;-66
2023/03/28 03:59:12;;;;;;;6.50;4.15;;;-0.10;90.80;;;;;;5029106;28;20707;-67
2023/03/28 04:01:42;;;;;;;4.82;4.00;;;-0.10;90.60;;;;;;5029311;28;20687;-65
2023/03/28 04:04:10;;;;;;;7.07;4.25;;;-0.20;90.80;;;;;;5028944;28;20554;-67
2023/03/28 04:06:38;;;;;;;4.55;4.22;;;-0.10;91.00;;;;;;5029534;28;20582;-66
2023/03/28 04:09:06;;;;;;;8.07;4.38;;;0.00;90.70;;;;;;5028990;28;20257;-67
2023/03/28 04:11:33;;;;;;;7.40;4.32;;;0.00;90.50;;;;;;5029014;28;20209;-67
2023/03/28 04:14:00;;;;;;;5.93;4.15;;;0.00;90.50;;;;;;5028988;28;20573;-67
2023/03/28 04:16:27;;;;;;;7.85;4.10;;;-0.10;90.40;;;;;;5029216;28;20208;-67
2023/03/28 04:18:55;;;;;;;6.40;4.20;;;-0.10;90.60;;;;;;5028877;28;20225;-67
2023/03/28 04:21:26;;;;;;;6.80;4.13;;;-0.20;90.70;;;;;;5030297;28;20212;-67
2023/03/28 04:23:53;;;;;;;4.85;4.20;;;-0.20;90.60;;;;;;5032682;28;20205;-67
2023/03/28 04:26:24;;;;;;;7.50;4.38;;;-0.30;90.50;;;;;;5032655;28;20209;-65
2023/03/28 04:28:51;;;;;;;6.88;4.13;;;-0.40;90.60;;;;;;5032822;28;20225;-67
2023/03/28 04:31:20;;;;;;;6.13;4.55;;;-0.50;90.90;;;;;;5032364;28;20568;-66
2023/03/28 04:33:48;;;;;;;8.82;4.30;;;-0.50;91.10;;;;;;5031982;28;20206;-68
2023/03/28 04:36:17;;;;;;;5.32;4.22;;;-0.50;91.30;;;;;;5031548;28;20213;-67
2023/03/28 04:38:45;;;;;;;7.53;4.07;;;-0.50;91.50;;;;;;5032936;28;20224;-67
2023/03/28 04:41:15;;;;;;;5.90;4.57;;;-0.50;91.40;;;;;;5032476;28;20276;-66
2023/03/28 04:43:42;;;;;;;10.50;5.50;;;-0.60;91.20;;;;;;5032409;28;20222;-67
2023/03/28 04:46:09;;;;;;;11.38;4.75;;;-0.60;91.20;;;;;;5032802;28;20205;-66
2023/03/28 04:48:36;;;;;;;5.95;4.43;;;-0.50;91.40;;;;;;5031872;28;20222;-66
2023/03/28 04:51:03;;;;;;;8.18;4.43;;;-0.50;91.20;;;;;;5032225;28;20198;-66
2023/03/28 04:53:31;;;;;;;10.30;3.85;;;-0.40;91.10;;;;;;5031528;28;20216;-66
2023/03/28 04:55:58;;;;;;;5.88;4.70;;;-0.40;91.10;;;;;;5032394;28;20205;-67
2023/03/28 04:58:25;;;;;;;5.55;4.95;;;-0.40;91.20;;;;;;5032054;28;20226;-68
2023/03/28 05:00:53;;;;;;;8.43;5.05;;;-0.50;91.30;;;;;;5031925;28;20281;-67
2023/03/28 05:03:22;;;;;;;7.72;4.68;;;-0.40;91.20;;;;;;5031481;28;20224;-67
2023/03/28 05:05:51;;;;;;;6.95;4.28;;;-0.50;91.20;;;;;;5031505;28;20229;-67
2023/03/28 05:08:21;;;;;;;6.38;5.38;;;-0.50;91.30;;;;;;5032387;28;20228;-67
2023/03/28 05:10:50;;;;;;;6.45;4.85;;;-0.40;91.00;;;;;;5031399;28;20256;-68
2023/03/28 05:13:17;;;;;;;5.80;4.90;;;-0.40;91.00;;;;;;5031727;28;20997;-67
2023/03/28 05:15:46;;;;;;;5.97;3.97;;;-0.40;91.10;;;;;;5031529;28;20570;-67
2023/03/28 05:18:13;;;;;;;6.30;4.68;;;-0.40;90.90;;;;;;5031828;28;20259;-67
2023/03/28 05:20:40;;;;;;;7.68;5.25;;;-0.50;91.00;;;;;;5031460;28;20206;-67
2023/03/28 05:23:07;;;;;;;12.63;5.88;;;-0.50;91.00;;;;;;5029175;28;20221;-66
2023/03/28 05:25:34;;;;;;;7.30;4.80;;;-0.50;91.00;;;;;;5031454;28;20278;-66
2023/03/28 05:28:02;;;;;;;10.10;4.30;;;-0.50;91.50;;;;;;5031427;28;20594;-65
2023/03/28 05:30:29;;;;;;;7.05;5.32;;;-0.40;91.30;;;;;;5031551;28;20213;-67
2023/03/28 05:32:57;;;;;;;6.97;4.93;;;-0.40;91.30;;;;;;5030383;28;20759;-66
2023/03/28 05:35:24;;;;;;;6.53;4.80;;;-0.30;91.30;;;;;;5031196;28;20201;-66
2023/03/28 05:37:51;;;;;;;6.72;5.55;;;-0.30;91.20;;;;;;5031897;28;20218;-67
2023/03/28 05:40:19;;;;;;;7.50;4.97;;;-0.30;91.30;;;;;;5032127;28;20616;-62
2023/03/28 05:42:45;;;;;;;5.28;4.78;;;-0.40;91.20;;;;;;5031677;28;20221;-65
2023/03/28 05:45:14;;;;;;;7.50;5.03;;;-0.30;91.40;;;;;;5032328;28;20206;-66
2023/03/28 05:47:41;;;;;;;5.65;4.15;;;-0.20;91.50;;;;;;5032942;28;20221;-66
2023/03/28 05:50:09;;;;;;;6.32;4.72;;;-0.20;91.40;;;;;;5031225;28;20675;-67
2023/03/28 05:52:36;;;;;;;9.85;4.88;;;-0.10;91.30;;;;;;5031432;28;20237;-67
2023/03/28 05:55:03;;;;;;;4.93;4.45;;;-0.10;91.50;;;;;;5029953;28;20206;-67
2023/03/28 05:57:30;;;;;;;5.65;5.05;;;0.00;90.90;;;;;;5031176;28;20197;-66
2023/03/28 05:59:57;;;;;;;5.15;4.50;;;0.00;90.70;;;;;;5031338;28;20278;-66
2023/03/28 06:02:25;;;;;;;7.22;4.00;;;0.10;90.70;;;;;;5031279;28;20248;-65
2023/03/28 06:04:53;;;;;;;7.03;5.88;;;0.10;90.70;;;;;;5031188;28;20206;-68
2023/03/28 06:07:20;;;;;;;5.47;4.10;;;0.10;91.10;;;;;;5030892;28;20205;-67
2023/03/28 06:09:47;;;;;;;13.10;5.25;;;0.30;91.20;;;;;;5030983;28;20706;-66
2023/03/28 06:12:14;;;;;;;4.50;4.10;;;0.40;90.50;;;;;;5030763;28;20198;-66
2023/03/28 06:14:41;;;;;;;7.28;5.25;;;0.50;89.90;;;;;;5030794;28;20857;-66
2023/03/28 06:17:08;;;;;;;6.32;4.82;;;0.50;89.80;;;;;;5030748;28;20860;-67
2023/03/28 06:19:36;;;;;;;7.40;5.57;;;0.60;90.20;;;;;;5030694;28;20233;-67
2023/03/28 06:22:03;;;;;;;6.15;4.60;;;0.60;90.30;;;;;;5030748;28;20206;-67
2023/03/28 06:24:30;;;;;;;6.57;4.70;;;0.70;90.10;;;;;;5030493;28;20213;-67
2023/03/28 06:26:57;;;;;;;8.73;4.55;;;0.90;89.50;;;;;;5030370;28;20233;-67
2023/03/28 06:29:24;;;;;;;4.95;4.50;;;1.00;88.70;;;;;;5030739;28;20611;-67
2023/03/28 06:31:51;;;;;;;6.85;5.15;;;1.10;87.80;;;;;;5030578;28;20581;-67
2023/03/28 06:34:18;;;;;;;6.40;5.28;;;1.20;87.60;;;;;;5030290;28;20224;-68
2023/03/28 06:36:46;;;;;;;6.75;4.30;;;1.20;88.40;;;;;;5030225;28;20213;-67
2023/03/28 06:39:13;;;;;;;7.50;4.90;;;1.20;88.90;;;;;;5030355;28;20222;-67
2023/03/28 06:41:40;;;;;;;12.02;5.15;;;1.20;88.70;;;;;;5030019;28;20210;-68
2023/03/28 06:44:06;;;;;;;7.70;5.15;;;1.30;88.50;;;;;;5029745;28;20704;-67
2023/03/28 06:46:33;;;;;;;6.40;4.22;;;1.40;88.80;;;;;;5030378;28;20201;-68
2023/03/28 06:49:00;;;;;;;6.95;4.90;;;1.40;87.90;;;;;;5030216;28;20594;-68
2023/03/28 06:51:27;;;;;;;8.43;5.45;;;1.60;87.70;;;;;;5030107;28;20203;-66
2023/03/28 06:53:56;;;;;;;7.63;4.28;;;1.70;88.00;;;;;;5029408;28;20226;-67
2023/03/28 06:56:23;;;;;;;9.52;4.40;;;1.90;85.80;;;;;;5029969;28;20210;-67
2023/03/28 06:58:49;;;;;;;6.57;4.70;;;2.00;83.60;;;;;;5030024;28;20219;-65
2023/03/28 07:01:16;;;;;;;8.00;3.85;;;2.20;82.40;;;;;;5030166;28;20203;-67
2023/03/28 07:03:43;;;;;;;6.60;3.80;;;2.30;80.90;;;;;;5029546;28;20235;-67
2023/03/28 07:06:11;;;;;;;7.60;4.10;;;2.50;79.40;;;;;;5029915;28;20210;-66
2023/03/28 07:08:38;;;;;;;5.32;3.20;;;2.60;78.20;;;;;;5029612;28;20231;-67
2023/03/28 07:11:07;;;;;;;6.93;3.80;;;2.60;77.20;;;;;;5028484;28;20204;-67
2023/03/28 07:13:33;;;;;;;11.52;4.30;;;2.70;76.80;;;;;;5029806;28;20285;-67
2023/03/28 07:16:02;;;;;;;10.05;3.90;;;2.90;76.40;;;;;;5029650;28;20196;-68
2023/03/28 07:18:29;;;;;;;5.43;3.40;;;3.00;74.40;;;;;;5029772;28;20228;-67
2023/03/28 07:20:56;;;;;;;6.60;3.42;;;3.10;75.20;;;;;;5029537;28;20198;-68
2023/03/28 07:23:22;;;;;;;5.65;3.17;;;3.20;74.40;;;;;;5029298;28;20708;-68
2023/03/28 07:25:49;;;;;;;4.75;3.05;;;3.30;73.20;;;;;;5029694;28;20197;-68
2023/03/28 07:28:17;;;;;;;8.90;3.30;;;3.40;74.10;;;;;;5030114;28;20229;-68
2023/03/28 07:30:44;;;;;;;4.32;2.72;;;3.40;72.30;;;;;;5029573;28;20199;-67
2023/03/28 07:33:11;;;;;;;3.60;2.50;;;3.50;71.40;;;;;;5029872;28;20682;-67
2023/03/28 07:35:40;;;;;;;5.30;3.65;;;3.50;68.70;;;;;;5030182;28;20201;-68
2023/03/28 07:38:08;;;;;;;10.75;2.70;;;3.60;70.80;;;;;;5030633;28;20251;-67
2023/03/28 07:40:35;;;;;;;3.83;2.80;;;3.70;68.30;;;;;;5030311;28;20230;-68
2023/03/28 07:43:02;;;;;;;5.10;3.00;;;3.80;69.40;;;;;;5030190;28;20486;-67
2023/03/28 07:45:30;;;;;;;5.10;2.80;;;3.90;69.40;;;;;;5029820;28;20470;-67
2023/03/28 07:47:57;;;;;;;4.57;3.03;;;3.90;68.20;;;;;;5029592;28;21050;-67
2023/03/28 07:50:24;;;;;;;6.63;3.70;;;4.00;68.30;;;;;;5029524;28;20547;-68
2023/03/28 07:52:56;;;;;;;8.00;3.37;;;4.10;68.90;;;;;;5030275;28;20451;-68
2023/03/28 07:55:23;;;;;;;8.93;2.80;;;4.20;68.20;;;;;;5030134;28;20551;-66
2023/03/28 07:57:50;;;;;;;4.70;3.00;;;4.30;65.50;;;;;;5032905;28;20471;-67
2023/03/28 08:00:18;;;;;;;7.30;3.50;;;4.30;65.50;;;;;;5034623;28;20541;-68
2023/03/28 08:02:46;;;;;;;5.37;3.60;;;4.30;64.00;;;;;;5034953;28;20522;-70
2023/03/28 08:05:13;;;;;;;5.63;2.70;;;4.20;63.00;;;;;;5036879;28;20511;-68
2023/03/28 08:07:40;;;;;;;5.77;3.20;;;4.20;65.50;;;;;;5033239;28;20470;-67
2023/03/28 08:10:09;;;;;;;5.27;3.27;;;4.20;64.40;;;;;;5033054;28;20828;-67
2023/03/28 08:12:36;;;;;;;7.13;3.63;;;4.30;63.80;;;;;;5032721;28;20451;-67
2023/03/28 08:15:03;;;;;;;9.87;3.20;;;4.30;64.00;;;;;;5032873;28;20698;-67
2023/03/28 08:17:30;;;;;;;5.15;3.20;;;4.30;65.10;;;;;;5032725;28;20439;-65
2023/03/28 08:19:59;;;;;;;9.93;3.37;;;4.40;64.80;;;;;;5033090;28;20209;-68
2023/03/28 08:22:27;;;;;;;7.93;3.40;;;4.60;63.90;;;;;;5032025;28;20449;-65
2023/03/28 08:24:54;;;;;;;7.53;3.87;;;4.70;62.80;;;;;;5032495;28;20489;-66
2023/03/28 08:27:21;;;;;;;5.40;3.60;;;4.80;64.80;;;;;;5032289;28;20539;-66
2023/03/28 08:29:48;;;;;;;9.83;3.50;;;4.80;63.30;;;;;;5032622;28;20506;-67
2023/03/28 08:32:15;;;;;;;6.63;2.77;;;4.90;62.10;;;;;;5032632;28;20453;-69
2023/03/28 08:34:41;;;;;;;5.50;3.23;;;4.90;61.20;;;;;;5032536;28;20451;-67
2023/03/28 08:37:10;;;;;;;7.57;3.20;;;5.10;62.00;;;;;;5032392;28;20451;-67
2023/03/28 08:39:40;;;;;;;4.70;2.63;;;5.30;59.40;;;;;;5032408;28;20472;-68
2023/03/28 08:42:26;;;;;;;5.63;3.33;;;5.40;57.80;;;;;;5032527;28;20441;-69
2023/03/28 08:45:08;;;;;;;4.50;3.07;;;5.60;57.80;;;;;;5032500;28;20485;-70
2023/03/28 08:47:43;;;;;;;7.40;3.57;;;5.60;57.60;;;;;;5032596;28;21090;-68
2023/03/28 08:50:15;;;;;;;4.73;2.40;;;5.70;58.10;;;;;;5032528;28;20448;-67
2023/03/28 08:52:44;;;;;;;4.03;2.43;;;5.80;56.60;;;;;;5032161;28;20445;-68
2023/03/28 08:55:24;;;;;;;4.70;2.33;;;5.50;55.10;;;;;;5032331;28;20448;-67
2023/03/28 08:57:53;;;;;;;6.87;3.17;;;5.40;55.80;;;;;;5032313;28;20538;-67
2023/03/28 09:00:26;;;;;;;3.60;2.33;;;5.40;56.10;;;;;;5032300;28;20444;-68
2023/03/28 09:02:53;;;;;;;4.80;2.07;;;5.50;57.30;;;;;;5031936;28;20464;-68
2023/03/28 09:05:29;;;;;;;4.97;2.03;;;5.70;55.60;;;;;;5031932;28;20948;-67
2023/03/28 09:08:03;;;;;;;5.13;2.27;;;5.60;53.60;;;;;;5030728;28;20476;-66
2023/03/28 09:10:38;;;;;;;9.27;2.70;;;5.40;53.90;;;;;;5032249;28;20456;-67
2023/03/28 09:13:16;;;;;;;6.20;2.57;;;5.80;55.20;;;;;;5031859;28;20448;-67
2023/03/28 09:16:05;;;;;;;5.67;2.50;;;6.60;56.30;;;;;;5031889;28;20467;-68
2023/03/28 09:18:53;;;;;;;3.40;2.23;;;7.30;53.20;;;;;;5032082;28;21048;-68
2023/03/28 09:21:30;;;;;;;7.00;2.20;;;7.80;51.00;;;;;;5019188;28;21151;-69
2023/03/28 09:24:20;;;;;;;5.00;2.20;;;7.90;48.90;;;;;;5031612;28;20944;-68
2023/03/28 09:26:52;;;;;;;5.63;1.90;;;8.00;48.10;;;;;;5031991;28;20976;-70
2023/03/28 09:29:23;;;;;;;7.23;1.97;;;8.00;46.10;;;;;;5031917;28;20465;-70
2023/03/28 09:31:54;;;;;;;4.47;1.73;;;8.20;45.90;;;;;;5031773;28;20452;-68
2023/03/28 09:34:26;;;;;;;6.07;2.20;;;8.40;45.30;;;;;;5031730;28;20465;-69
2023/03/28 09:36:56;;;;;;;3.20;1.93;;;8.30;43.60;;;;;;5031896;28;20456;-68
2023/03/28 09:39:32;;;;;;;2.87;1.63;;;8.00;44.80;;;;;;5032026;28;20470;-69
2023/03/28 09:42:05;;;;;;;4.90;1.80;;;7.60;45.70;;;;;;5031478;28;20468;-69
2023/03/28 09:44:37;;;;;;;2.13;1.33;;;7.20;45.00;;;;;;5031174;28;20494;-69
2023/03/28 09:47:08;;;;;;;3.47;2.47;;;6.90;42.60;;;;;;5031185;28;20821;-68
2023/03/28 09:49:35;;;;;;;4.53;2.03;;;6.80;44.30;;;;;;5031224;28;21032;-68
2023/03/28 09:52:12;;;;;;;2.30;1.30;;;7.30;44.70;;;;;;5031374;28;20453;-68
2023/03/28 09:54:41;;;;;;;4.27;1.37;;;7.90;44.10;;;;;;5031572;28;20796;-68
2023/03/28 09:57:08;;;;;;;5.87;1.30;;;8.30;42.10;;;;;;5031443;28;20821;-68
2023/03/28 09:59:35;;;;;;;1.27;1.13;;;8.10;43.20;;;;;;5031603;28;20528;-68
2023/03/28 10:02:03;;;;;;;4.17;1.40;;;7.80;43.90;;;;;;5031751;28;20463;-69
2023/03/28 10:04:36;;;;;;;4.60;1.67;;;8.20;44.30;;;;;;5031482;28;20489;-67
2023/03/28 10:07:28;;;;;;;2.77;1.63;;;9.00;43.80;;;;;;5030954;28;20459;-66
2023/03/28 10:10:02;;;;;;;2.37;1.40;;;9.20;39.90;;;;;;5031088;28;20448;-66
2023/03/28 10:12:33;;;;;;;4.50;2.00;;;9.50;40.50;;;;;;5030946;28;20449;-67
2023/03/28 10:15:01;;;;;;;4.03;1.57;;;9.60;39.10;;;;;;5031093;28;20461;-66
2023/03/28 10:17:34;;;;;;;2.70;1.53;;;9.70;38.20;;;;;;5031005;28;20451;-67
2023/03/28 10:20:05;;;;;;;4.37;1.37;;;9.80;39.10;;;;;;5030512;28;20445;-68
2023/03/28 10:22:37;;;;;;;3.70;1.50;;;10.20;37.30;;;;;;5030350;28;21033;-68
2023/03/28 10:25:07;;;;;;;5.13;2.37;;;10.60;35.60;;;;;;5030554;28;20503;-67
2023/03/28 10:27:37;;;;;;;6.60;2.13;;;11.00;36.20;;;;;;5030576;28;20809;-67
2023/03/28 10:30:17;;;;;;;2.60;1.60;;;11.00;35.10;;;;;;5030653;28;20450;-67
2023/03/28 10:32:44;;;;;;;2.80;1.80;;;10.60;35.50;;;;;;5030500;28;20449;-67
2023/03/28 10:35:22;;;;;;;9.90;3.83;;;10.10;36.30;;;;;;5030659;28;20448;-66
2023/03/28 10:37:54;;;;;;;3.43;1.73;;;10.40;35.00;;;;;;5030486;28;20469;-68
2023/03/28 10:40:28;;;;;;;1.50;1.40;;;10.90;36.90;;;;;;5030449;28;20509;-68
2023/03/28 10:42:58;;;;;;;3.83;1.60;;;11.10;35.30;;;;;;5030047;28;20870;-68
2023/03/28 10:45:38;;;;;;;5.80;1.87;;;11.20;36.00;;;;;;5030237;28;20477;-68
2023/03/28 10:48:11;;;;;;;4.03;1.93;;;11.80;37.20;;;;;;5030223;28;20566;-67
2023/03/28 10:50:43;;;;;;;5.63;1.73;;;12.20;34.80;;;;;;5030440;28;20452;-67
2023/03/28 10:53:27;;;;;;;1.83;1.70;;;11.70;34.30;;;;;;5030117;28;20448;-66
2023/03/28 10:56:05;;;;;;;5.67;2.03;;;11.30;33.50;;;;;;5030302;28;20458;-68
2023/03/28 10:58:37;;;;;;;3.00;1.77;;;11.60;34.80;;;;;;5030102;28;21241;-67
2023/03/28 11:01:12;;;;;;;8.93;1.87;;;12.60;35.00;;;;;;5030149;28;20845;-67
2023/03/28 11:03:55;;;;;;;4.13;1.70;;;13.60;34.10;;;;;;5029791;28;20918;-69
2023/03/28 11:06:26;;;;;;;4.83;2.00;;;14.30;33.40;;;;;;5029039;28;20461;-68
2023/03/28 11:09:02;;;;;;;3.83;1.80;;;15.00;33.10;;;;;;5030121;28;20848;-67
2023/03/28 11:11:44;;;;;;;2.83;1.37;;;15.70;30.10;;;;;;5030171;28;20451;-67
2023/03/28 11:14:20;;;;;;;1.73;1.63;;;15.80;30.80;;;;;;5029929;28;20448;-67
2023/03/28 11:16:54;;;;;;;4.43;2.07;;;15.80;30.00;;;;;;5029805;28;20455;-66
2023/03/28 11:19:47;;;;;;;4.40;3.10;;;14.50;29.40;;;;;;5030247;28;20867;-67
2023/03/28 11:22:24;;;;;;;2.33;1.70;;;14.60;31.20;;;;;;5029770;28;20458;-66
2023/03/28 11:24:59;;;;;;;4.77;1.80;;;15.70;30.10;;;;;;5029849;28;20483;-67
2023/03/28 11:27:34;;;;;;;4.70;2.17;;;16.50;30.20;;;;;;5029948;28;20456;-67
2023/03/28 11:30:05;;;;;;;3.10;2.83;;;17.10;29.40;;;;;;5030143;28;20538;-66
2023/03/28 11:32:38;;;;;;;6.40;1.90;;;17.40;26.90;;;;;;5033283;28;21057;-67
2023/03/28 11:35:13;;;;;;;4.47;1.97;;;17.00;26.70;;;;;;5034376;28;20544;-67
2023/03/28 11:37:45;;;;;;;4.20;1.93;;;15.90;26.90;;;;;;5034266;28;20467;-69
2023/03/28 11:40:22;;;;;;;2.43;1.80;;;15.90;31.40;;;;;;5034133;28;20460;-68
2023/03/28 11:42:55;;;;;;;2.43;1.77;;;16.90;29.60;;;;;;5033180;28;20448;-67
2023/03/28 11:45:27;;;;;;;2.17;1.90;;;17.60;28.70;;;;;;5033475;28;20479;-67
2023/03/28 11:48:04;;;;;;;3.80;1.67;;;17.80;27.60;;;;;;5033374;28;20468;-66
2023/03/28 11:50:46;;;;;;;3.87;2.03;;;18.20;29.00;;;;;;5033879;28;20548;-65
2023/03/28 11:53:18;;;;;;;5.13;2.27;;;18.40;28.00;;;;;;5033074;28;20449;-68
2023/03/28 11:55:48;;;;;;;3.00;1.60;;;18.50;28.90;;;;;;5033379;28;20437;-68
2023/03/28 11:58:22;;;;;;;1.67;1.40;;;18.90;26.30;;;;;;5031194;28;20477;-68
2023/03/28 12:01:00;;;;;;;6.33;2.10;;;18.70;27.70;;;;;;5033931;28;20437;-69
2023/03/28 12:03:35;;;;;;;3.07;1.90;;;18.70;26.50;;;;;;5027550;28;20453;-66
2023/03/28 12:06:05;;;;;;;2.93;1.93;;;18.80;28.00;;;;;;5024329;28;20495;-67
2023/03/28 12:08:38;;;;;;;5.00;2.10;;;19.20;26.00;;;;;;5013194;28;20469;-67
2023/03/28 12:11:10;;;;;;;3.37;1.93;;;19.40;25.10;;;;;;5013800;28;20526;-66
2023/03/28 12:13:45;;;;;;;4.27;2.53;;;19.40;24.30;;;;;;5013115;28;20459;-67
2023/03/28 12:16:15;;;;;;;1.67;1.57;;;17.90;25.00;;;;;;5013713;28;20456;-67
2023/03/28 12:18:46;;;;;;;5.33;2.27;;;16.60;27.90;;;;;;5013115;28;21040;-68
2023/03/28 12:21:19;;;;;;;4.67;2.13;;;16.80;29.50;;;;;;5029433;28;20448;-67
2023/03/28 12:23:58;;;;;;;3.67;1.80;;;17.10;27.60;;;;;;5027245;28;20523;-67
2023/03/28 12:26:32;;;;;;;5.67;2.17;;;17.10;27.20;;;;;;5023747;28;20504;-66
2023/03/28 12:29:08;;;;;;;5.17;1.87;;;16.30;29.00;;;;;;5032787;28;20515;-65
2023/03/28 12:31:43;;;;;;;2.77;1.63;;;16.70;27.60;;;;;;5032648;28;20516;-65
2023/03/28 12:34:13;;;;;;;5.17;2.00;;;16.70;29.80;;;;;;5032293;28;20934;-67
2023/03/28 12:36:47;;;;;;;2.23;1.97;;;16.50;28.50;;;;;;5030776;28;20544;-67
2023/03/28 12:39:33;;;;;;;3.40;1.57;;;16.80;29.40;;;;;;5031534;28;20539;-67
2023/03/28 12:42:01;;;;;;;3.73;1.93;;;17.40;27.90;;;;;;5031041;28;20538;-65
2023/03/28 12:44:42;;;;;;;4.37;1.90;;;17.70;27.90;;;;;;5032959;28;20491;-65
2023/03/28 12:47:15;;;;;;;3.50;1.80;;;18.10;26.70;;;;;;5036839;28;20436;-64
2023/03/28 12:49:48;;;;;;;5.67;2.40;;;17.80;26.80;;;;;;5037420;28;20452;-65
2023/03/28 12:52:19;;;;;;;3.67;2.33;;;16.90;27.10;;;;;;5036045;28;20456;-66
2023/03/28 12:54:57;;;;;;;2.67;2.30;;;16.80;26.60;;;;;;5038722;28;20444;-66
2023/03/28 12:57:44;;;;;;;2.20;1.93;;;17.10;27.20;;;;;;5032600;28;20856;-66
2023/03/28 13:00:24;;;;;;;3.17;2.80;;;17.40;26.60;;;;;;5018177;28;21017;-66
2023/03/28 13:02:58;;;;;;;3.60;1.67;;;16.80;26.50;;;;;;5031971;28;20814;-66
2023/03/28 13:05:31;;;;;;;5.23;1.93;;;16.20;27.70;;;;;;5031005;28;20494;-67
2023/03/28 13:08:03;;;;;;;2.27;2.00;;;16.20;30.50;;;;;;5031873;28;20468;-67
2023/03/28 13:10:42;;;;;;;3.43;1.90;;;16.60;26.20;;;;;;5032941;28;20445;-65
2023/03/28 13:13:22;;;;;;;2.50;1.80;;;17.10;26.40;;;;;;5030329;28;20437;-66